sensor_id;sensor_type;location;lat;lon;timestamp;P1;durP1;ratioP1;P2;durP2;ratioP2
4325;SDS011;58429;49.826;10.880;2022-11-28T00:00:32;25.2;;;13.3;;
4325;SDS011;58429;49.826;10.880;2022-11-28T00:01:33;25.2;;;13.3;;
4325;SDS011;58429;49.826;10.880;2022-11-28T00:02:32;23.5;;;14.1;;
4325;SDS011;58429;49.826;10.880;2022-11-28T00:03:32;23.5;;;14.1;;
4325;SDS011;58429;49.826;10.880;2022-11-28T00:04:32;23.5;;;14.1;;
4325;SDS011;58429;49.826;10.880;2022-11-28T00:05:33;23.6;;;12.7;;
4325;SDS011;58429;49.826;10.880;2022-11-28T00:06:34;23.6;;;12.7;;
4325;SDS011;58429;49.826;10.880;2022-11-28T00:07:32;23.6;;;12.7;;
4325;SDS011;58429;49.826;10.880;2022-11-28T00:08:33;24;;;13.5;;
4325;SDS011;58429;49.826;10.880;2022-11-28T00:09:33;24;;;13.5;;
4325;SDS011;58429;49.826;10.880;2022-11-28T00:10:33;24;;;13.5;;
4325;SDS011;58429;49.826;10.880;2022-11-28T00:11:33;23.3;;;12.2;;
4325;SDS011;58429;49.826;10.880;2022-11-28T00:12:32;23.3;;;12.2;;
4325;SDS011;58429;49.826;10.880;2022-11-28T00:13:33;23.3;;;12.2;;
4325;SDS011;58429;49.826;10.880;2022-11-28T00:14:32;21;;;12.3;;
4325;SDS011;58429;49.826;10.880;2022-11-28T00:15:33;21;;;12.3;;
4325;SDS011;58429;49.826;10.880;2022-11-28T00:16:32;21;;;12.3;;
4325;SDS011;58429;49.826;10.880;2022-11-28T00:17:32;23;;;12.8;;
4325;SDS011;58429;49.826;10.880;2022-11-28T00:18:33;23;;;12.8;;
4325;SDS011;58429;49.826;10.880;2022-11-28T00:19:32;23;;;12.8;;
4325;SDS011;58429;49.826;10.880;2022-11-28T00:20:32;21.2;;;12.8;;
4325;SDS011;58429;49.826;10.880;2022-11-28T00:21:33;21.2;;;12.8;;
4325;SDS011;58429;49.826;10.880;2022-11-28T00:22:32;21.2;;;12.8;;
4325;SDS011;58429;49.826;10.880;2022-11-28T00:23:33;24.1;;;12.7;;
4325;SDS011;58429;49.826;10.880;2022-11-28T00:24:32;24.1;;;12.7;;
4325;SDS011;58429;49.826;10.880;2022-11-28T00:25:33;24.1;;;12.7;;
4325;SDS011;58429;49.826;10.880;2022-11-28T00:26:33;22;;;12.9;;
4325;SDS011;58429;49.826;10.880;2022-11-28T00:27:33;22;;;12.9;;
4325;SDS011;58429;49.826;10.880;2022-11-28T00:28:32;22;;;12.9;;
4325;SDS011;58429;49.826;10.880;2022-11-28T00:29:32;23.8;;;13;;
4325;SDS011;58429;49.826;10.880;2022-11-28T00:30:34;23.8;;;13;;
4325;SDS011;58429;49.826;10.880;2022-11-28T00:31:34;23.8;;;13;;
4325;SDS011;58429;49.826;10.880;2022-11-28T00:32:32;23.4;;;12.7;;
4325;SDS011;58429;49.826;10.880;2022-11-28T00:33:32;23.4;;;12.7;;
4325;SDS011;58429;49.826;10.880;2022-11-28T00:34:32;23.4;;;12.7;;
4325;SDS011;58429;49.826;10.880;2022-11-28T00:35:32;26.4;;;13.7;;
4325;SDS011;58429;49.826;10.880;2022-11-28T00:36:32;26.4;;;13.7;;
4325;SDS011;58429;49.826;10.880;2022-11-28T00:37:33;26.4;;;13.7;;
4325;SDS011;58429;49.826;10.880;2022-11-28T00:38:33;24.6;;;12.6;;
4325;SDS011;58429;49.826;10.880;2022-11-28T00:39:33;24.6;;;12.6;;
4325;SDS011;58429;49.826;10.880;2022-11-28T00:40:32;24.6;;;12.6;;
4325;SDS011;58429;49.826;10.880;2022-11-28T00:41:33;21;;;10.9;;
4325;SDS011;58429;49.826;10.880;2022-11-28T00:42:32;21;;;10.9;;
4325;SDS011;58429;49.826;10.880;2022-11-28T00:43:33;21;;;10.9;;
4325;SDS011;58429;49.826;10.880;2022-11-28T00:44:32;23.5;;;12.3;;
4325;SDS011;58429;49.826;10.880;2022-11-28T00:45:32;23.5;;;12.3;;
4325;SDS011;58429;49.826;10.880;2022-11-28T00:46:32;23.5;;;12.3;;
4325;SDS011;58429;49.826;10.880;2022-11-28T00:47:33;23.1;;;11.1;;
4325;SDS011;58429;49.826;10.880;2022-11-28T00:48:33;23.1;;;11.1;;
4325;SDS011;58429;49.826;10.880;2022-11-28T00:49:33;23.1;;;11.1;;
4325;SDS011;58429;49.826;10.880;2022-11-28T00:50:32;22.2;;;12.2;;
4325;SDS011;58429;49.826;10.880;2022-11-28T00:51:33;22.2;;;12.2;;
4325;SDS011;58429;49.826;10.880;2022-11-28T00:52:33;22.2;;;12.2;;
4325;SDS011;58429;49.826;10.880;2022-11-28T00:53:33;23.1;;;12.7;;
4325;SDS011;58429;49.826;10.880;2022-11-28T00:54:33;23.1;;;12.7;;
4325;SDS011;58429;49.826;10.880;2022-11-28T00:55:33;23.1;;;12.7;;
4325;SDS011;58429;49.826;10.880;2022-11-28T00:56:35;24.5;;;14.4;;
4325;SDS011;58429;49.826;10.880;2022-11-28T00:57:33;24.5;;;14.4;;
4325;SDS011;58429;49.826;10.880;2022-11-28T00:58:33;24.5;;;14.4;;
4325;SDS011;58429;49.826;10.880;2022-11-28T00:59:32;24.9;;;14.2;;
4325;SDS011;58429;49.826;10.880;2022-11-28T01:00:33;24.9;;;14.2;;
4325;SDS011;58429;49.826;10.880;2022-11-28T01:01:34;24.9;;;14.2;;
4325;SDS011;58429;49.826;10.880;2022-11-28T01:02:33;25.6;;;14.1;;
4325;SDS011;58429;49.826;10.880;2022-11-28T01:03:33;25.6;;;14.1;;
4325;SDS011;58429;49.826;10.880;2022-11-28T01:04:33;25.6;;;14.1;;
4325;SDS011;58429;49.826;10.880;2022-11-28T01:05:37;23.2;;;13.6;;
4325;SDS011;58429;49.826;10.880;2022-11-28T01:06:34;23.2;;;13.6;;
4325;SDS011;58429;49.826;10.880;2022-11-28T01:07:33;23.2;;;13.6;;
4325;SDS011;58429;49.826;10.880;2022-11-28T01:08:33;23.2;;;13.6;;
4325;SDS011;58429;49.826;10.880;2022-11-28T01:09:33;21.7;;;12.9;;
4325;SDS011;58429;49.826;10.880;2022-11-28T01:10:33;21.7;;;12.9;;
4325;SDS011;58429;49.826;10.880;2022-11-28T01:11:33;21.7;;;12.9;;
4325;SDS011;58429;49.826;10.880;2022-11-28T01:12:33;23.5;;;12.4;;
4325;SDS011;58429;49.826;10.880;2022-11-28T01:13:33;23.5;;;12.4;;
4325;SDS011;58429;49.826;10.880;2022-11-28T01:14:33;23.5;;;12.4;;
4325;SDS011;58429;49.826;10.880;2022-11-28T01:15:33;23.9;;;13.7;;
4325;SDS011;58429;49.826;10.880;2022-11-28T01:16:33;23.9;;;13.7;;
4325;SDS011;58429;49.826;10.880;2022-11-28T01:17:33;23.9;;;13.7;;
4325;SDS011;58429;49.826;10.880;2022-11-28T01:18:33;22.8;;;14.1;;
4325;SDS011;58429;49.826;10.880;2022-11-28T01:19:33;22.8;;;14.1;;
4325;SDS011;58429;49.826;10.880;2022-11-28T01:20:33;22.8;;;14.1;;
4325;SDS011;58429;49.826;10.880;2022-11-28T01:21:33;25.8;;;14;;
4325;SDS011;58429;49.826;10.880;2022-11-28T01:22:33;25.8;;;14;;
4325;SDS011;58429;49.826;10.880;2022-11-28T01:23:33;25.8;;;14;;
4325;SDS011;58429;49.826;10.880;2022-11-28T01:24:33;26.9;;;15.3;;
4325;SDS011;58429;49.826;10.880;2022-11-28T01:25:33;26.9;;;15.3;;
4325;SDS011;58429;49.826;10.880;2022-11-28T01:26:33;26.9;;;15.3;;
4325;SDS011;58429;49.826;10.880;2022-11-28T01:27:33;22.6;;;13.4;;
4325;SDS011;58429;49.826;10.880;2022-11-28T01:28:33;22.6;;;13.4;;
4325;SDS011;58429;49.826;10.880;2022-11-28T01:29:33;22.6;;;13.4;;
4325;SDS011;58429;49.826;10.880;2022-11-28T01:30:33;25;;;13.9;;
4325;SDS011;58429;49.826;10.880;2022-11-28T01:31:33;25;;;13.9;;
4325;SDS011;58429;49.826;10.880;2022-11-28T01:32:33;25;;;13.9;;
4325;SDS011;58429;49.826;10.880;2022-11-28T01:33:33;24.6;;;14.9;;
4325;SDS011;58429;49.826;10.880;2022-11-28T01:34:33;24.6;;;14.9;;
4325;SDS011;58429;49.826;10.880;2022-11-28T01:35:33;24.6;;;14.9;;
4325;SDS011;58429;49.826;10.880;2022-11-28T01:36:33;25.1;;;14.9;;
4325;SDS011;58429;49.826;10.880;2022-11-28T01:37:33;25.1;;;14.9;;
4325;SDS011;58429;49.826;10.880;2022-11-28T01:38:33;25.1;;;14.9;;
4325;SDS011;58429;49.826;10.880;2022-11-28T01:39:33;25.4;;;13.7;;
4325;SDS011;58429;49.826;10.880;2022-11-28T01:40:33;25.4;;;13.7;;
4325;SDS011;58429;49.826;10.880;2022-11-28T01:41:33;25.4;;;13.7;;
4325;SDS011;58429;49.826;10.880;2022-11-28T01:42:33;22.9;;;14.2;;
4325;SDS011;58429;49.826;10.880;2022-11-28T01:43:33;22.9;;;14.2;;
4325;SDS011;58429;49.826;10.880;2022-11-28T01:45:18;22.9;;;14.2;;
4325;SDS011;58429;49.826;10.880;2022-11-28T01:45:33;24.6;;;14;;
4325;SDS011;58429;49.826;10.880;2022-11-28T01:46:33;24.6;;;14;;
4325;SDS011;58429;49.826;10.880;2022-11-28T01:47:33;24.6;;;14;;
4325;SDS011;58429;49.826;10.880;2022-11-28T01:48:33;24.5;;;14.2;;
4325;SDS011;58429;49.826;10.880;2022-11-28T01:49:33;24.5;;;14.2;;
4325;SDS011;58429;49.826;10.880;2022-11-28T01:50:33;24.5;;;14.2;;
4325;SDS011;58429;49.826;10.880;2022-11-28T01:51:33;26;;;14.5;;
4325;SDS011;58429;49.826;10.880;2022-11-28T01:52:33;26;;;14.5;;
4325;SDS011;58429;49.826;10.880;2022-11-28T01:53:34;26;;;14.5;;
4325;SDS011;58429;49.826;10.880;2022-11-28T01:54:33;22.3;;;14;;
4325;SDS011;58429;49.826;10.880;2022-11-28T01:55:34;22.3;;;14;;
4325;SDS011;58429;49.826;10.880;2022-11-28T01:56:34;22.3;;;14;;
4325;SDS011;58429;49.826;10.880;2022-11-28T01:57:33;24.4;;;15;;
4325;SDS011;58429;49.826;10.880;2022-11-28T01:58:33;24.4;;;15;;
4325;SDS011;58429;49.826;10.880;2022-11-28T01:59:34;24.4;;;15;;
4325;SDS011;58429;49.826;10.880;2022-11-28T02:00:34;24.4;;;13.8;;
4325;SDS011;58429;49.826;10.880;2022-11-28T02:01:33;24.4;;;13.8;;
4325;SDS011;58429;49.826;10.880;2022-11-28T02:02:34;24.4;;;13.8;;
4325;SDS011;58429;49.826;10.880;2022-11-28T02:03:33;23.4;;;13.9;;
4325;SDS011;58429;49.826;10.880;2022-11-28T02:04:33;23.4;;;13.9;;
4325;SDS011;58429;49.826;10.880;2022-11-28T02:05:33;23.4;;;13.9;;
4325;SDS011;58429;49.826;10.880;2022-11-28T02:06:33;26.8;;;16.4;;
4325;SDS011;58429;49.826;10.880;2022-11-28T02:07:33;26.8;;;16.4;;
4325;SDS011;58429;49.826;10.880;2022-11-28T02:08:33;26.8;;;16.4;;
4325;SDS011;58429;49.826;10.880;2022-11-28T02:09:33;24.4;;;13.7;;
4325;SDS011;58429;49.826;10.880;2022-11-28T02:10:35;24.4;;;13.7;;
4325;SDS011;58429;49.826;10.880;2022-11-28T02:11:45;24.4;;;13.7;;
4325;SDS011;58429;49.826;10.880;2022-11-28T02:12:37;23.4;;;14.5;;
4325;SDS011;58429;49.826;10.880;2022-11-28T02:13:34;23.4;;;14.5;;
4325;SDS011;58429;49.826;10.880;2022-11-28T02:14:39;23.4;;;14.5;;
4325;SDS011;58429;49.826;10.880;2022-11-28T02:15:38;25.9;;;14.9;;
4325;SDS011;58429;49.826;10.880;2022-11-28T02:16:37;25.9;;;14.9;;
4325;SDS011;58429;49.826;10.880;2022-11-28T02:17:36;25.9;;;14.9;;
4325;SDS011;58429;49.826;10.880;2022-11-28T02:18:37;24;;;14.9;;
4325;SDS011;58429;49.826;10.880;2022-11-28T02:19:43;24;;;14.9;;
4325;SDS011;58429;49.826;10.880;2022-11-28T02:21:35;25.3;;;14.1;;
4325;SDS011;58429;49.826;10.880;2022-11-28T02:21:41;24;;;14.9;;
4325;SDS011;58429;49.826;10.880;2022-11-28T02:22:34;25.3;;;14.1;;
4325;SDS011;58429;49.826;10.880;2022-11-28T02:23:38;25.3;;;14.1;;
4325;SDS011;58429;49.826;10.880;2022-11-28T02:24:38;22.8;;;14.1;;
4325;SDS011;58429;49.826;10.880;2022-11-28T02:25:38;22.8;;;14.1;;
4325;SDS011;58429;49.826;10.880;2022-11-28T02:26:40;22.8;;;14.1;;
4325;SDS011;58429;49.826;10.880;2022-11-28T02:27:39;21.3;;;13.5;;
4325;SDS011;58429;49.826;10.880;2022-11-28T02:28:36;21.3;;;13.5;;
4325;SDS011;58429;49.826;10.880;2022-11-28T02:29:38;21.3;;;13.5;;
4325;SDS011;58429;49.826;10.880;2022-11-28T02:30:33;21.3;;;12.6;;
4325;SDS011;58429;49.826;10.880;2022-11-28T02:32:35;21.3;;;12.6;;
4325;SDS011;58429;49.826;10.880;2022-11-28T02:33:33;21.8;;;13.3;;
4325;SDS011;58429;49.826;10.880;2022-11-28T02:34:35;21.8;;;13.3;;
4325;SDS011;58429;49.826;10.880;2022-11-28T02:35:34;21.8;;;13.3;;
4325;SDS011;58429;49.826;10.880;2022-11-28T02:36:33;22;;;13.8;;
4325;SDS011;58429;49.826;10.880;2022-11-28T02:37:33;22;;;13.8;;
4325;SDS011;58429;49.826;10.880;2022-11-28T02:38:38;22;;;13.8;;
4325;SDS011;58429;49.826;10.880;2022-11-28T02:39:34;23.1;;;14.9;;
4325;SDS011;58429;49.826;10.880;2022-11-28T02:40:35;23.1;;;14.9;;
4325;SDS011;58429;49.826;10.880;2022-11-28T02:41:33;23.1;;;14.9;;
4325;SDS011;58429;49.826;10.880;2022-11-28T02:42:36;20.9;;;13.4;;
4325;SDS011;58429;49.826;10.880;2022-11-28T02:43:34;20.9;;;13.4;;
4325;SDS011;58429;49.826;10.880;2022-11-28T02:44:33;20.9;;;13.4;;
4325;SDS011;58429;49.826;10.880;2022-11-28T02:45:35;21.2;;;12.9;;
4325;SDS011;58429;49.826;10.880;2022-11-28T02:46:34;21.2;;;12.9;;
4325;SDS011;58429;49.826;10.880;2022-11-28T02:47:34;21.2;;;12.9;;
4325;SDS011;58429;49.826;10.880;2022-11-28T02:48:35;26.1;;;15;;
4325;SDS011;58429;49.826;10.880;2022-11-28T02:49:34;26.1;;;15;;
4325;SDS011;58429;49.826;10.880;2022-11-28T02:50:34;26.1;;;15;;
4325;SDS011;58429;49.826;10.880;2022-11-28T02:51:34;24.1;;;15.1;;
4325;SDS011;58429;49.826;10.880;2022-11-28T02:52:33;24.1;;;15.1;;
4325;SDS011;58429;49.826;10.880;2022-11-28T02:53:33;24.1;;;15.1;;
4325;SDS011;58429;49.826;10.880;2022-11-28T02:54:33;24.1;;;15.1;;
4325;SDS011;58429;49.826;10.880;2022-11-28T02:55:35;23;;;13.7;;
4325;SDS011;58429;49.826;10.880;2022-11-28T02:56:33;23;;;13.7;;
4325;SDS011;58429;49.826;10.880;2022-11-28T02:57:33;23;;;13.7;;
4325;SDS011;58429;49.826;10.880;2022-11-28T02:58:33;22.5;;;13.7;;
4325;SDS011;58429;49.826;10.880;2022-11-28T02:59:44;22.5;;;13.7;;
4325;SDS011;58429;49.826;10.880;2022-11-28T03:00:33;22.5;;;13.7;;
4325;SDS011;58429;49.826;10.880;2022-11-28T03:01:33;22.1;;;13.4;;
4325;SDS011;58429;49.826;10.880;2022-11-28T03:02:33;22.1;;;13.4;;
4325;SDS011;58429;49.826;10.880;2022-11-28T03:03:51;22.1;;;13.4;;
4325;SDS011;58429;49.826;10.880;2022-11-28T03:04:34;23.2;;;13.7;;
4325;SDS011;58429;49.826;10.880;2022-11-28T03:05:34;23.2;;;13.7;;
4325;SDS011;58429;49.826;10.880;2022-11-28T03:06:36;23.2;;;13.7;;
4325;SDS011;58429;49.826;10.880;2022-11-28T03:07:38;22.4;;;13.1;;
4325;SDS011;58429;49.826;10.880;2022-11-28T03:08:36;22.4;;;13.1;;
4325;SDS011;58429;49.826;10.880;2022-11-28T03:09:39;22.4;;;13.1;;
4325;SDS011;58429;49.826;10.880;2022-11-28T03:10:34;24;;;13.3;;
4325;SDS011;58429;49.826;10.880;2022-11-28T03:11:35;24;;;13.3;;
4325;SDS011;58429;49.826;10.880;2022-11-28T03:12:35;24;;;13.3;;
4325;SDS011;58429;49.826;10.880;2022-11-28T03:13:35;22.9;;;12.1;;
4325;SDS011;58429;49.826;10.880;2022-11-28T03:14:35;22.9;;;12.1;;
4325;SDS011;58429;49.826;10.880;2022-11-28T03:15:36;22.9;;;12.1;;
4325;SDS011;58429;49.826;10.880;2022-11-28T03:16:33;20.9;;;12.3;;
4325;SDS011;58429;49.826;10.880;2022-11-28T03:17:36;20.9;;;12.3;;
4325;SDS011;58429;49.826;10.880;2022-11-28T03:18:34;20.9;;;12.3;;
4325;SDS011;58429;49.826;10.880;2022-11-28T03:19:33;22.6;;;12.9;;
4325;SDS011;58429;49.826;10.880;2022-11-28T03:20:35;22.6;;;12.9;;
4325;SDS011;58429;49.826;10.880;2022-11-28T03:21:35;22.6;;;12.9;;
4325;SDS011;58429;49.826;10.880;2022-11-28T03:22:36;22.5;;;13.1;;
4325;SDS011;58429;49.826;10.880;2022-11-28T03:23:35;22.5;;;13.1;;
4325;SDS011;58429;49.826;10.880;2022-11-28T03:24:33;22.5;;;13.1;;
4325;SDS011;58429;49.826;10.880;2022-11-28T03:25:35;22.3;;;12.3;;
4325;SDS011;58429;49.826;10.880;2022-11-28T03:26:34;22.3;;;12.3;;
4325;SDS011;58429;49.826;10.880;2022-11-28T03:27:33;22.3;;;12.3;;
4325;SDS011;58429;49.826;10.880;2022-11-28T03:28:33;21.4;;;11.4;;
4325;SDS011;58429;49.826;10.880;2022-11-28T03:29:33;21.4;;;11.4;;
4325;SDS011;58429;49.826;10.880;2022-11-28T03:30:35;21.4;;;11.4;;
4325;SDS011;58429;49.826;10.880;2022-11-28T03:31:34;21.3;;;13.3;;
4325;SDS011;58429;49.826;10.880;2022-11-28T03:32:34;21.3;;;13.3;;
4325;SDS011;58429;49.826;10.880;2022-11-28T03:33:34;21.3;;;13.3;;
4325;SDS011;58429;49.826;10.880;2022-11-28T03:34:33;22.9;;;12.8;;
4325;SDS011;58429;49.826;10.880;2022-11-28T03:35:34;22.9;;;12.8;;
4325;SDS011;58429;49.826;10.880;2022-11-28T03:36:34;22.9;;;12.8;;
4325;SDS011;58429;49.826;10.880;2022-11-28T03:37:35;21.9;;;13.1;;
4325;SDS011;58429;49.826;10.880;2022-11-28T03:38:33;21.9;;;13.1;;
4325;SDS011;58429;49.826;10.880;2022-11-28T03:39:34;21.9;;;13.1;;
4325;SDS011;58429;49.826;10.880;2022-11-28T03:40:35;20.8;;;11.4;;
4325;SDS011;58429;49.826;10.880;2022-11-28T03:41:34;20.8;;;11.4;;
4325;SDS011;58429;49.826;10.880;2022-11-28T03:42:33;20.8;;;11.4;;
4325;SDS011;58429;49.826;10.880;2022-11-28T03:43:33;22.7;;;11.8;;
4325;SDS011;58429;49.826;10.880;2022-11-28T03:44:34;22.7;;;11.8;;
4325;SDS011;58429;49.826;10.880;2022-11-28T03:45:34;22.7;;;11.8;;
4325;SDS011;58429;49.826;10.880;2022-11-28T03:46:34;21;;;9.9;;
4325;SDS011;58429;49.826;10.880;2022-11-28T03:47:34;21;;;9.9;;
4325;SDS011;58429;49.826;10.880;2022-11-28T03:48:34;21;;;9.9;;
4325;SDS011;58429;49.826;10.880;2022-11-28T03:49:34;21.3;;;10.1;;
4325;SDS011;58429;49.826;10.880;2022-11-28T03:50:35;21.3;;;10.1;;
4325;SDS011;58429;49.826;10.880;2022-11-28T03:51:34;21.3;;;10.1;;
4325;SDS011;58429;49.826;10.880;2022-11-28T03:52:34;22.8;;;9.7;;
4325;SDS011;58429;49.826;10.880;2022-11-28T03:53:33;22.8;;;9.7;;
4325;SDS011;58429;49.826;10.880;2022-11-28T03:54:33;22.8;;;9.7;;
4325;SDS011;58429;49.826;10.880;2022-11-28T03:55:34;22.5;;;10.1;;
4325;SDS011;58429;49.826;10.880;2022-11-28T03:56:34;22.5;;;10.1;;
4325;SDS011;58429;49.826;10.880;2022-11-28T03:57:34;22.5;;;10.1;;
4325;SDS011;58429;49.826;10.880;2022-11-28T03:58:34;22.2;;;11;;
4325;SDS011;58429;49.826;10.880;2022-11-28T03:59:33;22.2;;;11;;
4325;SDS011;58429;49.826;10.880;2022-11-28T04:00:33;22.2;;;11;;
4325;SDS011;58429;49.826;10.880;2022-11-28T04:01:35;21.3;;;10.7;;
4325;SDS011;58429;49.826;10.880;2022-11-28T04:02:35;21.3;;;10.7;;
4325;SDS011;58429;49.826;10.880;2022-11-28T04:03:35;21.3;;;10.7;;
4325;SDS011;58429;49.826;10.880;2022-11-28T04:04:34;20.5;;;10.2;;
4325;SDS011;58429;49.826;10.880;2022-11-28T04:05:34;20.5;;;10.2;;
4325;SDS011;58429;49.826;10.880;2022-11-28T04:06:34;20.5;;;10.2;;
4325;SDS011;58429;49.826;10.880;2022-11-28T04:07:35;20.7;;;9.4;;
4325;SDS011;58429;49.826;10.880;2022-11-28T04:08:34;20.7;;;9.4;;
4325;SDS011;58429;49.826;10.880;2022-11-28T04:09:36;20.7;;;9.4;;
4325;SDS011;58429;49.826;10.880;2022-11-28T04:10:34;19.6;;;9.4;;
4325;SDS011;58429;49.826;10.880;2022-11-28T04:11:36;19.6;;;9.4;;
4325;SDS011;58429;49.826;10.880;2022-11-28T04:12:36;19.6;;;9.4;;
4325;SDS011;58429;49.826;10.880;2022-11-28T04:13:34;22.6;;;9.9;;
4325;SDS011;58429;49.826;10.880;2022-11-28T04:14:33;22.6;;;9.9;;
4325;SDS011;58429;49.826;10.880;2022-11-28T04:15:36;22.6;;;9.9;;
4325;SDS011;58429;49.826;10.880;2022-11-28T04:16:33;20.3;;;10.2;;
4325;SDS011;58429;49.826;10.880;2022-11-28T04:17:34;20.3;;;10.2;;
4325;SDS011;58429;49.826;10.880;2022-11-28T04:18:35;20.3;;;10.2;;
4325;SDS011;58429;49.826;10.880;2022-11-28T04:19:34;21.8;;;10.1;;
4325;SDS011;58429;49.826;10.880;2022-11-28T04:20:34;21.8;;;10.1;;
4325;SDS011;58429;49.826;10.880;2022-11-28T04:21:34;21.8;;;10.1;;
4325;SDS011;58429;49.826;10.880;2022-11-28T04:22:34;23.3;;;10.3;;
4325;SDS011;58429;49.826;10.880;2022-11-28T04:23:33;23.3;;;10.3;;
4325;SDS011;58429;49.826;10.880;2022-11-28T04:24:33;23.3;;;10.3;;
4325;SDS011;58429;49.826;10.880;2022-11-28T04:25:34;23.2;;;10.9;;
4325;SDS011;58429;49.826;10.880;2022-11-28T04:26:34;23.2;;;10.9;;
4325;SDS011;58429;49.826;10.880;2022-11-28T04:27:34;23.2;;;10.9;;
4325;SDS011;58429;49.826;10.880;2022-11-28T04:28:33;20.3;;;10.5;;
4325;SDS011;58429;49.826;10.880;2022-11-28T04:29:34;20.3;;;10.5;;
4325;SDS011;58429;49.826;10.880;2022-11-28T04:30:33;20.3;;;10.5;;
4325;SDS011;58429;49.826;10.880;2022-11-28T04:31:33;25.3;;;11.3;;
4325;SDS011;58429;49.826;10.880;2022-11-28T04:32:34;25.3;;;11.3;;
4325;SDS011;58429;49.826;10.880;2022-11-28T04:33:34;25.3;;;11.3;;
4325;SDS011;58429;49.826;10.880;2022-11-28T04:34:33;23.3;;;10.3;;
4325;SDS011;58429;49.826;10.880;2022-11-28T04:35:34;23.3;;;10.3;;
4325;SDS011;58429;49.826;10.880;2022-11-28T04:36:33;23.3;;;10.3;;
4325;SDS011;58429;49.826;10.880;2022-11-28T04:37:33;24.3;;;12.7;;
4325;SDS011;58429;49.826;10.880;2022-11-28T04:38:33;24.3;;;12.7;;
4325;SDS011;58429;49.826;10.880;2022-11-28T04:39:33;24.3;;;12.7;;
4325;SDS011;58429;49.826;10.880;2022-11-28T04:40:35;25.2;;;12.4;;
4325;SDS011;58429;49.826;10.880;2022-11-28T04:41:34;25.2;;;12.4;;
4325;SDS011;58429;49.826;10.880;2022-11-28T04:42:34;25.2;;;12.4;;
4325;SDS011;58429;49.826;10.880;2022-11-28T04:43:34;25.2;;;12.4;;
4325;SDS011;58429;49.826;10.880;2022-11-28T04:44:35;23.4;;;12.2;;
4325;SDS011;58429;49.826;10.880;2022-11-28T04:45:34;23.4;;;12.2;;
4325;SDS011;58429;49.826;10.880;2022-11-28T04:46:34;23.4;;;12.2;;
4325;SDS011;58429;49.826;10.880;2022-11-28T04:47:33;22.4;;;12.2;;
4325;SDS011;58429;49.826;10.880;2022-11-28T04:48:33;22.4;;;12.2;;
4325;SDS011;58429;49.826;10.880;2022-11-28T04:49:33;22.4;;;12.2;;
4325;SDS011;58429;49.826;10.880;2022-11-28T04:50:36;22.8;;;12.6;;
4325;SDS011;58429;49.826;10.880;2022-11-28T04:51:35;22.8;;;12.6;;
4325;SDS011;58429;49.826;10.880;2022-11-28T04:52:34;22.8;;;12.6;;
4325;SDS011;58429;49.826;10.880;2022-11-28T04:53:34;23.1;;;12.1;;
4325;SDS011;58429;49.826;10.880;2022-11-28T04:54:35;23.1;;;12.1;;
4325;SDS011;58429;49.826;10.880;2022-11-28T04:55:34;23.1;;;12.1;;
4325;SDS011;58429;49.826;10.880;2022-11-28T04:56:35;22.4;;;13.1;;
4325;SDS011;58429;49.826;10.880;2022-11-28T04:57:34;22.4;;;13.1;;
4325;SDS011;58429;49.826;10.880;2022-11-28T04:58:33;22.4;;;13.1;;
4325;SDS011;58429;49.826;10.880;2022-11-28T04:59:33;21.9;;;12.1;;
4325;SDS011;58429;49.826;10.880;2022-11-28T05:00:33;21.9;;;12.1;;
4325;SDS011;58429;49.826;10.880;2022-11-28T05:01:33;21.9;;;12.1;;
4325;SDS011;58429;49.826;10.880;2022-11-28T05:02:33;22.4;;;11.4;;
4325;SDS011;58429;49.826;10.880;2022-11-28T05:03:33;22.4;;;11.4;;
4325;SDS011;58429;49.826;10.880;2022-11-28T05:04:33;22.4;;;11.4;;
4325;SDS011;58429;49.826;10.880;2022-11-28T05:05:40;23.3;;;11.8;;
4325;SDS011;58429;49.826;10.880;2022-11-28T05:06:34;23.3;;;11.8;;
4325;SDS011;58429;49.826;10.880;2022-11-28T05:07:33;23.3;;;11.8;;
4325;SDS011;58429;49.826;10.880;2022-11-28T05:08:33;23.4;;;13;;
4325;SDS011;58429;49.826;10.880;2022-11-28T05:09:33;23.4;;;13;;
4325;SDS011;58429;49.826;10.880;2022-11-28T05:10:33;23.4;;;13;;
4325;SDS011;58429;49.826;10.880;2022-11-28T05:11:33;20;;;11.4;;
4325;SDS011;58429;49.826;10.880;2022-11-28T05:12:33;20;;;11.4;;
4325;SDS011;58429;49.826;10.880;2022-11-28T05:13:33;20;;;11.4;;
4325;SDS011;58429;49.826;10.880;2022-11-28T05:14:33;22.2;;;11.1;;
4325;SDS011;58429;49.826;10.880;2022-11-28T05:15:33;22.2;;;11.1;;
4325;SDS011;58429;49.826;10.880;2022-11-28T05:16:33;22.2;;;11.1;;
4325;SDS011;58429;49.826;10.880;2022-11-28T05:17:33;28.1;;;14.5;;
4325;SDS011;58429;49.826;10.880;2022-11-28T05:18:33;28.1;;;14.5;;
4325;SDS011;58429;49.826;10.880;2022-11-28T05:19:33;28.1;;;14.5;;
4325;SDS011;58429;49.826;10.880;2022-11-28T05:20:33;27.1;;;15.6;;
4325;SDS011;58429;49.826;10.880;2022-11-28T05:21:33;27.1;;;15.6;;
4325;SDS011;58429;49.826;10.880;2022-11-28T05:22:33;27.1;;;15.6;;
4325;SDS011;58429;49.826;10.880;2022-11-28T05:23:33;27.5;;;18.7;;
4325;SDS011;58429;49.826;10.880;2022-11-28T05:24:33;27.5;;;18.7;;
4325;SDS011;58429;49.826;10.880;2022-11-28T05:25:33;27.5;;;18.7;;
4325;SDS011;58429;49.826;10.880;2022-11-28T05:26:33;25.5;;;13.9;;
4325;SDS011;58429;49.826;10.880;2022-11-28T05:27:33;25.5;;;13.9;;
4325;SDS011;58429;49.826;10.880;2022-11-28T05:28:33;25.5;;;13.9;;
4325;SDS011;58429;49.826;10.880;2022-11-28T05:29:33;23.7;;;12.5;;
4325;SDS011;58429;49.826;10.880;2022-11-28T05:30:33;23.7;;;12.5;;
4325;SDS011;58429;49.826;10.880;2022-11-28T05:31:33;23.7;;;12.5;;
4325;SDS011;58429;49.826;10.880;2022-11-28T05:32:33;23.7;;;12.6;;
4325;SDS011;58429;49.826;10.880;2022-11-28T05:33:33;23.7;;;12.6;;
4325;SDS011;58429;49.826;10.880;2022-11-28T05:34:33;23.7;;;12.6;;
4325;SDS011;58429;49.826;10.880;2022-11-28T05:35:33;22.4;;;11.5;;
4325;SDS011;58429;49.826;10.880;2022-11-28T05:36:33;22.4;;;11.5;;
4325;SDS011;58429;49.826;10.880;2022-11-28T05:37:33;22.4;;;11.5;;
4325;SDS011;58429;49.826;10.880;2022-11-28T05:38:33;21.5;;;11.8;;
4325;SDS011;58429;49.826;10.880;2022-11-28T05:39:33;21.5;;;11.8;;
4325;SDS011;58429;49.826;10.880;2022-11-28T05:40:33;21.5;;;11.8;;
4325;SDS011;58429;49.826;10.880;2022-11-28T05:41:33;22.4;;;11.9;;
4325;SDS011;58429;49.826;10.880;2022-11-28T05:42:33;22.4;;;11.9;;
4325;SDS011;58429;49.826;10.880;2022-11-28T05:43:33;22.4;;;11.9;;
4325;SDS011;58429;49.826;10.880;2022-11-28T05:44:33;23.7;;;12.8;;
4325;SDS011;58429;49.826;10.880;2022-11-28T05:45:33;23.7;;;12.8;;
4325;SDS011;58429;49.826;10.880;2022-11-28T05:46:33;23.7;;;12.8;;
4325;SDS011;58429;49.826;10.880;2022-11-28T05:47:33;21.6;;;12.7;;
4325;SDS011;58429;49.826;10.880;2022-11-28T05:48:34;21.6;;;12.7;;
4325;SDS011;58429;49.826;10.880;2022-11-28T05:49:33;21.6;;;12.7;;
4325;SDS011;58429;49.826;10.880;2022-11-28T05:50:33;21.3;;;11.8;;
4325;SDS011;58429;49.826;10.880;2022-11-28T05:51:33;21.3;;;11.8;;
4325;SDS011;58429;49.826;10.880;2022-11-28T05:52:33;21.3;;;11.8;;
4325;SDS011;58429;49.826;10.880;2022-11-28T05:53:33;21.7;;;11.5;;
4325;SDS011;58429;49.826;10.880;2022-11-28T05:54:33;21.7;;;11.5;;
4325;SDS011;58429;49.826;10.880;2022-11-28T05:55:33;21.7;;;11.5;;
4325;SDS011;58429;49.826;10.880;2022-11-28T05:56:33;20.8;;;12.3;;
4325;SDS011;58429;49.826;10.880;2022-11-28T05:57:33;20.8;;;12.3;;
4325;SDS011;58429;49.826;10.880;2022-11-28T05:58:33;20.8;;;12.3;;
4325;SDS011;58429;49.826;10.880;2022-11-28T05:59:33;21.1;;;12;;
4325;SDS011;58429;49.826;10.880;2022-11-28T06:00:33;21.1;;;12;;
4325;SDS011;58429;49.826;10.880;2022-11-28T06:01:33;21.1;;;12;;
4325;SDS011;58429;49.826;10.880;2022-11-28T06:02:34;19.9;;;11.2;;
4325;SDS011;58429;49.826;10.880;2022-11-28T06:03:33;19.9;;;11.2;;
4325;SDS011;58429;49.826;10.880;2022-11-28T06:04:34;19.9;;;11.2;;